Time;durP1;ratioP1;P1;durP2;ratioP2;P2;SDS_P1;SDS_P2;PMS_P1;PMS_P2;Temp;Humidity;BMP_temperature;BMP_pressure;BME280_temperature;BME280_humidity;BME280_pressure;Samples;Min_cycle;Max_cycle;Signal;HPM_P1;HPM_P2
2022/05/15 00:01:32;;;;;;;15.50;6.10;;;;;;;12.33;64.10;98639.48;106277;1278;23235;-77
2022/05/15 00:04:02;;;;;;;9.70;5.60;;;;;;;12.30;64.32;98640.63;105965;1278;139071;-77
2022/05/15 00:06:29;;;;;;;13.00;6.50;;;;;;;12.27;64.27;98637.70;105956;1281;25367;-76
2022/05/15 00:08:59;;;;;;;9.20;6.30;;;;;;;12.26;64.65;98639.48;105965;1277;22563;-76
2022/05/15 00:11:26;;;;;;;11.60;6.30;;;;;;;12.25;64.30;98637.78;105752;1278;138168;-77
2022/05/15 00:14:07;;;;;;;15.10;6.80;;;;;;;12.21;64.52;98639.40;105869;1277;22547;-77
2022/05/15 00:16:35;;;;;;;10.60;6.50;;;;;;;12.18;65.12;98643.79;105763;1281;138404;-77
2022/05/15 00:19:03;;;;;;;13.50;7.00;;;;;;;12.14;64.72;98643.14;106655;1277;22682;-77
2022/05/15 00:21:31;;;;;;;13.80;7.50;;;;;;;12.11;65.02;98638.01;106158;1278;22540;-77
2022/05/15 00:23:59;;;;;;;9.90;6.90;;;;;;;12.08;65.24;98641.85;106611;1278;138056;-77
2022/05/15 00:26:26;;;;;;;11.80;6.30;;;;;;;12.06;65.28;98640.23;106469;1277;24337;-77
2022/05/15 00:28:53;;;;;;;16.80;7.20;;;;;;;12.05;65.27;98640.71;106486;1277;137748;-77
2022/05/15 00:31:20;;;;;;;14.70;5.80;;;;;;;12.01;65.31;98641.42;106048;1277;22666;-77
2022/05/15 00:33:48;;;;;;;10.90;5.80;;;;;;;12.01;65.63;98636.94;106843;1276;23281;-77
2022/05/15 00:36:15;;;;;;;10.90;6.50;;;;;;;12.01;65.36;98637.48;106545;1280;137855;-77
2022/05/15 00:38:43;;;;;;;12.30;6.30;;;;;;;12.01;65.63;98636.39;106364;1277;25309;-77
2022/05/15 00:41:11;;;;;;;14.60;7.30;;;;;;;12.01;65.57;98635.67;105778;1277;138321;-77
2022/05/15 00:43:55;;;;;;;11.40;6.00;;;;;;;12.02;65.71;98637.98;105736;1277;22585;-77
2022/05/15 00:46:28;;;;;;;14.20;5.40;;;;;;;12.03;65.67;98636.25;105688;1281;137862;-77
2022/05/15 00:48:58;;;;;;;10.20;5.70;;;;;;;12.04;65.58;98637.42;105869;1278;22578;-77
2022/05/15 00:51:36;;;;;;;10.50;5.60;;;;;;;12.06;65.64;98634.33;105946;1278;22699;-77
2022/05/15 00:54:24;;;;;;;11.10;5.80;;;;;;;12.06;65.43;98632.22;105946;1277;137772;-77
2022/05/15 00:57:08;;;;;;;14.70;5.60;;;;;;;12.08;65.09;98636.92;106188;1277;22544;-76
2022/05/15 00:59:52;;;;;;;8.40;4.90;;;;;;;12.07;65.16;98635.27;106242;1278;138290;-77
2022/05/15 01:02:21;;;;;;;11.20;5.50;;;;;;;12.07;65.32;98637.95;106235;1277;22557;-76
2022/05/15 01:04:50;;;;;;;8.90;4.70;;;;;;;12.06;65.12;98638.05;106318;1277;138519;-76
2022/05/15 01:07:17;;;;;;;9.50;4.50;;;;;;;12.07;64.89;98638.62;106448;1277;25316;-77
2022/05/15 01:09:45;;;;;;;8.60;4.90;;;;;;;12.09;64.87;98639.14;106121;1277;22552;-76
2022/05/15 01:12:28;;;;;;;13.20;5.50;;;;;;;12.14;65.24;98641.55;105858;1279;137690;-77
2022/05/15 01:14:57;;;;;;;9.30;5.00;;;;;;;12.17;65.55;98643.23;105898;1277;23047;-77
2022/05/15 01:17:24;;;;;;;7.80;4.90;;;;;;;12.19;65.41;98643.48;105787;1281;138224;-77
2022/05/15 01:20:02;;;;;;;11.40;5.00;;;;;;;12.21;65.30;98643.69;105903;1277;25476;-76
2022/05/15 01:22:31;;;;;;;8.60;4.90;;;;;;;12.24;65.56;98641.59;105855;1278;137792;-77
2022/05/15 01:24:58;;;;;;;7.60;4.50;;;;;;;12.24;65.17;98641.66;106271;1277;22657;-77
2022/05/15 01:27:25;;;;;;;9.60;5.00;;;;;;;12.24;64.91;98639.14;105924;1280;22627;-76
2022/05/15 01:30:07;;;;;;;12.10;4.80;;;;;;;12.25;64.96;98636.30;105781;1278;137550;-77
2022/05/15 01:32:34;;;;;;;9.10;4.80;;;;;;;12.25;64.92;98638.06;105820;1280;22614;-77
2022/05/15 01:35:03;;;;;;;13.60;5.10;;;;;;;12.22;64.53;98643.85;105726;1278;137723;-77
2022/05/15 01:37:30;;;;;;;8.80;6.00;;;;;;;12.16;65.06;98647.63;106242;1277;25632;-77
2022/05/15 01:40:12;;;;;;;12.20;5.90;;;;;;;12.07;65.82;98650.13;105770;1278;137609;-77
2022/05/15 01:42:39;;;;;;;7.60;5.10;;;;;;;12.05;66.62;98647.83;105952;1277;22587;-78
2022/05/15 01:45:08;;;;;;;13.20;5.30;;;;;;;12.07;66.80;98645.83;105777;1279;24322;-77
2022/05/15 01:47:35;;;;;;;9.90;5.50;;;;;;;12.10;66.94;98642.36;105694;1278;137844;-76
2022/05/15 01:50:03;;;;;;;11.50;5.80;;;;;;;12.12;66.90;98642.67;106012;1278;22814;-76
2022/05/15 01:52:30;;;;;;;9.00;5.10;;;;;;;12.13;66.10;98642.36;106434;1277;138722;-76
2022/05/15 01:54:57;;;;;;;9.40;5.10;;;;;;;12.15;66.09;98646.92;106333;1278;22573;-76
2022/05/15 01:57:40;;;;;;;11.70;5.70;;;;;;;12.14;65.82;98647.77;106010;1277;30180;-76
2022/05/15 02:00:13;;;;;;;11.70;5.60;;;;;;;12.14;65.57;98652.20;105854;1277;138125;-77
2022/05/15 02:02:41;;;;;;;8.80;5.60;;;;;;;12.13;65.71;98649.25;106138;1278;22560;-77
2022/05/15 02:05:22;;;;;;;10.80;5.90;;;;;;;12.14;66.23;98650.84;105748;1278;137568;-77
2022/05/15 02:07:50;;;;;;;9.20;5.50;;;;;;;12.12;66.11;98646.39;106478;1277;22554;-77
2022/05/15 02:10:20;;;;;;;7.20;5.10;;;;;;;12.11;66.24;98648.92;106007;1277;138466;-77
2022/05/15 02:12:48;;;;;;;7.20;5.40;;;;;;;12.10;66.47;98646.69;106108;1277;22550;-77
2022/05/15 02:15:15;;;;;;;9.90;5.50;;;;;;;12.11;66.32;98644.61;106105;1277;22559;-77
2022/05/15 02:17:43;;;;;;;14.70;5.60;;;;;;;12.11;66.68;98643.14;106134;1277;137548;-77
2022/05/15 02:20:14;;;;;;;11.30;6.10;;;;;;;12.12;66.28;98646.43;106266;1277;22655;-77
2022/05/15 02:22:41;;;;;;;9.40;5.30;;;;;;;12.12;66.47;98647.60;105762;1278;137877;-77
2022/05/15 02:25:11;;;;;;;7.30;5.00;;;;;;;12.13;66.65;98650.48;106028;1277;22561;-77
2022/05/15 02:27:42;;;;;;;17.70;7.10;;;;;;;12.13;66.65;98650.65;106232;1277;24276;-77
2022/05/15 02:30:11;;;;;;;8.50;5.00;;;;;;;12.12;66.49;98648.56;105980;1280;137653;-77
2022/05/15 02:32:39;;;;;;;9.70;5.20;;;;;;;12.10;66.86;98645.42;106148;1277;22712;-77
2022/05/15 02:35:07;;;;;;;7.20;5.40;;;;;;;12.07;66.62;98652.05;106113;1277;137610;-77
2022/05/15 02:37:35;;;;;;;9.80;5.50;;;;;;;12.04;66.65;98656.96;106105;1277;24282;-77
2022/05/15 02:40:19;;;;;;;10.80;5.20;;;;;;;12.01;66.90;98657.20;106421;1277;139046;-77
2022/05/15 02:42:48;;;;;;;10.80;5.20;;;;;;;12.03;67.00;98658.46;105956;1279;22647;-77
2022/05/15 02:45:15;;;;;;;9.40;5.60;;;;;;;12.05;67.04;98658.93;106066;1278;22567;-77
2022/05/15 02:47:43;;;;;;;9.50;5.50;;;;;;;12.06;66.94;98656.17;106112;1277;138349;-77
2022/05/15 02:52:53;;;;;;;9.80;5.70;;;;;;;12.11;66.54;98653.84;106376;1277;137560;-78
2022/05/15 02:55:23;;;;;;;13.80;6.40;;;;;;;12.11;66.12;98654.23;106142;1278;22700;-77
2022/05/15 02:57:54;;;;;;;10.40;5.50;;;;;;;12.08;66.24;98656.74;105782;1277;22538;-77
2022/05/15 03:00:23;;;;;;;10.40;5.20;;;;;;;12.07;66.42;98658.10;105803;1278;137766;-78
2022/05/15 03:02:51;;;;;;;12.50;6.10;;;;;;;12.08;66.61;98658.13;106062;1280;22707;-78
2022/05/15 03:05:20;;;;;;;11.20;5.70;;;;;;;12.07;66.63;98658.30;106060;1278;137901;-77
2022/05/15 03:07:48;;;;;;;;;;;;;;;12.06;66.39;98654.70;106181;1277;25347;-78
2022/05/15 03:10:18;;;;;;;13.00;5.20;;;;;;;12.05;66.34;98656.70;105846;1278;125176;-76
2022/05/15 03:12:45;;;;;;;8.80;5.10;;;;;;;12.04;66.68;98657.67;106139;1277;22570;-77
2022/05/15 03:15:14;;;;;;;11.30;4.70;;;;;;;12.06;66.43;98664.36;105940;1277;22558;-77
2022/05/15 03:17:43;;;;;;;9.40;5.50;;;;;;;12.08;66.97;98662.66;105759;1277;138134;-77
2022/05/15 03:20:13;;;;;;;9.30;5.10;;;;;;;12.11;66.99;98661.78;105994;1279;22821;-77
2022/05/15 03:22:40;;;;;;;10.00;5.60;;;;;;;12.17;66.83;98664.52;105566;1280;137870;-77
2022/05/15 03:25:09;;;;;;;8.60;5.50;;;;;;;12.19;66.62;98659.14;105704;1280;24430;-77
2022/05/15 03:27:36;;;;;;;12.20;6.00;;;;;;;12.20;66.42;98664.52;105925;1278;24406;-77
2022/05/15 03:30:05;;;;;;;8.50;5.20;;;;;;;12.23;66.41;98665.93;106176;1276;138288;-77
2022/05/15 03:32:33;;;;;;;8.90;5.80;;;;;;;12.25;66.61;98664.27;106154;1277;25482;-77
2022/05/15 03:35:00;;;;;;;9.90;6.00;;;;;;;12.27;66.57;98663.90;106315;1277;137517;-77
2022/05/15 03:37:30;;;;;;;9.70;5.80;;;;;;;12.29;66.71;98667.00;105948;1279;22638;-77
2022/05/15 03:39:57;;;;;;;8.60;6.10;;;;;;;12.29;67.05;98666.48;106279;1277;22559;-77
2022/05/15 03:42:25;;;;;;;10.70;5.80;;;;;;;12.32;67.08;98676.98;105718;1280;138001;-76
2022/05/15 03:44:52;;;;;;;11.80;5.80;;;;;;;12.34;67.49;98675.20;105983;1277;22573;-78
2022/05/15 03:47:20;;;;;;;11.70;5.70;;;;;;;12.33;68.25;98677.70;105777;1277;137669;-77
2022/05/15 03:49:47;;;;;;;11.40;6.30;;;;;;;12.35;68.62;98675.65;105956;1277;22576;-77
2022/05/15 03:52:15;;;;;;;11.50;6.70;;;;;;;12.38;68.91;98674.34;105830;1280;138338;-77
2022/05/15 03:54:56;;;;;;;9.50;6.00;;;;;;;12.41;68.69;98675.53;105950;1278;24231;-77
2022/05/15 03:57:23;;;;;;;14.40;6.90;;;;;;;12.43;68.17;98679.76;105934;1277;22577;-77
2022/05/15 03:59:50;;;;;;;11.70;6.70;;;;;;;12.43;68.20;98681.23;105871;1277;137771;-79
2022/05/15 04:02:17;;;;;;;13.60;6.80;;;;;;;12.44;67.96;98682.73;105890;1277;22563;-77
2022/05/15 04:04:45;;;;;;;6.50;5.40;;;;;;;12.46;68.05;98683.48;106196;1277;138409;-78
2022/05/15 04:07:12;;;;;;;13.00;6.40;;;;;;;12.50;67.84;98687.38;106169;1277;22553;-77
2022/05/15 04:09:43;;;;;;;16.10;7.30;;;;;;;12.54;67.56;98689.96;106367;1277;25329;-78
2022/05/15 04:12:12;;;;;;;9.60;6.10;;;;;;;12.58;67.61;98690.84;105776;1277;138122;-78
2022/05/15 04:14:39;;;;;;;12.40;6.50;;;;;;;12.61;67.84;98690.00;105936;1278;22644;-78
2022/05/15 04:17:07;;;;;;;11.70;6.90;;;;;;;12.62;67.67;98691.77;105923;1277;137802;-78
2022/05/15 04:19:36;;;;;;;16.10;7.50;;;;;;;12.63;67.67;98693.31;106268;1277;22535;-78
2022/05/15 04:22:05;;;;;;;16.20;7.50;;;;;;;12.66;67.71;98698.81;105914;1278;23634;-78
2022/05/15 04:24:33;;;;;;;;;;;;;;;12.66;67.53;98698.16;105728;1277;137611;-78
2022/05/15 04:27:01;;;;;;;18.10;7.30;;;;;;;12.67;67.72;98692.77;106274;1277;22578;-78
2022/05/15 04:29:29;;;;;;;10.30;7.00;;;;;;;12.68;67.41;98690.98;105945;1279;138018;-78
2022/05/15 04:31:56;;;;;;;12.70;6.20;;;;;;;12.71;67.77;98703.20;106028;1278;22998;-78
2022/05/15 04:34:26;;;;;;;12.10;6.70;;;;;;;12.74;67.34;98706.41;106001;1277;138187;-78
2022/05/15 04:36:54;;;;;;;12.40;7.30;;;;;;;12.78;67.18;98709.14;106387;1277;22544;-77
2022/05/15 04:39:22;;;;;;;12.10;7.00;;;;;;;12.83;67.19;98704.22;105885;1279;22559;-77
2022/05/15 04:41:49;;;;;;;16.50;7.60;;;;;;;12.85;67.04;98700.27;106089;1277;138036;-78
2022/05/15 04:44:16;;;;;;;15.60;7.40;;;;;;;12.89;67.11;98703.16;106205;1277;22562;-78
2022/05/15 04:46:43;;;;;;;13.40;7.20;;;;;;;12.91;67.14;98706.67;106325;1277;138037;-78
2022/05/15 04:49:10;;;;;;;13.50;7.30;;;;;;;12.95;66.85;98706.61;105727;1277;22629;-78
2022/05/15 04:51:37;;;;;;;13.30;7.70;;;;;;;12.98;66.63;98707.85;106190;1277;22708;-78
2022/05/15 04:54:04;;;;;;;13.50;8.10;;;;;;;13.01;66.64;98705.52;105882;1277;137740;-78
2022/05/15 04:56:31;;;;;;;13.20;8.10;;;;;;;13.06;66.51;98708.02;106473;1277;22572;-78
2022/05/15 04:58:58;;;;;;;13.80;8.00;;;;;;;13.10;66.56;98713.68;106090;1277;138269;-78
2022/05/15 05:01:25;;;;;;;12.10;9.40;;;;;;;13.14;66.07;98720.24;106283;1277;22538;-78
2022/05/15 05:03:54;;;;;;;12.70;8.90;;;;;;;13.17;65.96;98724.27;106229;1276;22553;-75
2022/05/15 05:06:22;;;;;;;16.10;8.80;;;;;;;13.21;65.95;98717.55;105862;1277;137730;-77
2022/05/15 05:08:49;;;;;;;16.90;8.40;;;;;;;13.29;65.93;98717.36;106361;1277;25274;-77
2022/05/15 05:11:17;;;;;;;14.90;9.20;;;;;;;13.37;66.08;98719.55;106181;1277;138128;-76
2022/05/15 05:13:44;;;;;;;13.30;9.60;;;;;;;13.48;66.00;98720.16;106131;1278;23964;-76
2022/05/15 05:16:12;;;;;;;16.00;10.40;;;;;;;13.56;65.28;98719.27;106045;1277;137786;-76
2022/05/15 05:18:39;;;;;;;17.30;11.00;;;;;;;13.66;65.53;98724.12;106297;1280;24310;-76
2022/05/15 05:21:07;;;;;;;16.10;10.50;;;;;;;13.76;65.43;98729.33;106142;1280;25267;-76
2022/05/15 05:23:34;;;;;;;16.20;10.80;;;;;;;13.85;65.00;98729.01;106032;1280;137845;-76
2022/05/15 05:26:01;;;;;;;20.10;12.40;;;;;;;13.91;64.89;98732.02;106343;1278;22710;-77
2022/05/15 05:28:28;;;;;;;17.80;11.80;;;;;;;13.95;64.61;98734.36;105839;1277;138420;-76
2022/05/15 05:30:56;;;;;;;15.60;10.60;;;;;;;13.99;64.69;98725.68;106141;1277;24249;-77
2022/05/15 05:33:24;;;;;;;18.40;12.10;;;;;;;14.04;64.60;98726.27;106533;1277;24291;-77
2022/05/15 05:35:51;;;;;;;16.80;12.00;;;;;;;14.09;64.86;98735.46;105902;1277;137935;-78
2022/05/15 05:38:19;;;;;;;20.70;11.90;;;;;;;14.13;64.56;98743.10;106292;1277;22614;-77
2022/05/15 05:40:46;;;;;;;19.10;12.30;;;;;;;14.16;64.37;98743.52;105947;1278;138014;-77
2022/05/15 05:43:13;;;;;;;20.20;12.40;;;;;;;14.17;64.07;98739.20;106329;1277;23111;-78
2022/05/15 05:45:39;;;;;;;17.20;12.10;;;;;;;14.21;64.16;98741.64;106181;1277;22551;-76
2022/05/15 05:48:07;;;;;;;20.50;12.30;;;;;;;14.27;64.18;98741.41;105935;1277;138111;-78
2022/05/15 05:50:48;;;;;;;18.10;13.60;;;;;;;14.33;63.71;98743.20;105947;1280;22541;-77
2022/05/15 05:53:15;;;;;;;17.20;12.80;;;;;;;14.35;63.67;98742.84;106309;1277;138735;-76
2022/05/15 05:55:42;;;;;;;21.30;13.20;;;;;;;14.39;63.61;98748.13;106180;1277;23153;-76
2022/05/15 05:58:09;;;;;;;23.10;14.50;;;;;;;14.47;63.71;98740.08;106026;1277;22911;-76
2022/05/15 06:00:38;;;;;;;18.60;11.60;;;;;;;14.55;63.74;98741.95;105865;1278;137928;-76
2022/05/15 06:05:47;;;;;;;18.70;11.10;;;;;;;14.83;62.64;98746.52;106068;1277;138301;-77
2022/05/15 06:08:15;;;;;;;19.20;10.90;;;;;;;14.94;62.68;98752.40;106134;1276;22549;-77
2022/05/15 06:10:43;;;;;;;18.10;11.70;;;;;;;15.04;62.69;98753.32;105796;1279;139590;-77
2022/05/15 06:13:25;;;;;;;21.00;11.60;;;;;;;15.11;62.47;98749.63;106106;1279;22548;-77
2022/05/15 06:15:54;;;;;;;19.70;10.70;;;;;;;15.18;62.27;98748.02;106066;1277;25336;-77
2022/05/15 06:18:21;;;;;;;12.70;7.10;;;;;;;15.21;61.74;98751.05;106005;1277;137995;-77
2022/05/15 06:21:02;;;;;;;14.80;7.20;;;;;;;15.26;60.97;98752.48;105959;1278;22639;-77
2022/05/15 06:23:29;;;;;;;15.90;7.30;;;;;;;15.32;60.98;98749.16;106613;1277;138040;-76
2022/05/15 06:25:55;;;;;;;10.60;6.50;;;;;;;15.42;60.89;98751.23;106231;1277;22707;-77
2022/05/15 06:28:23;;;;;;;14.00;6.80;;;;;;;15.48;60.78;98755.91;106386;1277;137857;-77
2022/05/15 06:30:50;;;;;;;15.00;5.80;;;;;;;15.57;60.57;98753.68;106039;1278;25265;-77
2022/05/15 06:33:17;;;;;;;11.20;5.40;;;;;;;15.66;59.47;98754.48;106114;1277;22560;-77
2022/05/15 06:35:44;;;;;;;11.70;4.60;;;;;;;15.73;58.98;98751.59;106252;1277;137725;-77
2022/05/15 06:38:11;;;;;;;10.20;3.70;;;;;;;15.75;58.50;98753.43;106000;1277;25554;-78
2022/05/15 06:40:38;;;;;;;12.30;4.60;;;;;;;15.82;57.92;98757.07;105979;1277;137898;-77
2022/05/15 06:43:05;;;;;;;13.70;4.30;;;;;;;15.92;57.72;98755.05;105923;1279;30321;-77
2022/05/15 06:45:33;;;;;;;12.30;4.70;;;;;;;16.04;57.65;98756.48;105886;1278;22548;-79
2022/05/15 06:48:00;;;;;;;12.10;4.30;;;;;;;16.15;56.83;98760.88;105737;1278;137701;-76
2022/05/15 06:50:28;;;;;;;8.50;3.50;;;;;;;16.25;56.48;98759.46;105613;1280;24390;-77
2022/05/15 06:52:55;;;;;;;8.70;3.80;;;;;;;16.33;56.07;98761.88;106067;1277;137722;-77
2022/05/15 06:55:23;;;;;;;8.30;3.90;;;;;;;16.33;55.29;98761.50;106256;1277;22576;-78
2022/05/15 06:57:50;;;;;;;11.80;3.50;;;;;;;16.32;54.68;98761.98;106260;1277;25339;-78
2022/05/15 07:00:20;;;;;;;7.70;3.70;;;;;;;16.35;55.17;98761.34;105800;1277;137876;-77
2022/05/15 07:02:48;;;;;;;7.40;3.20;;;;;;;16.43;54.47;98760.17;106162;1277;24327;-77
2022/05/15 07:05:23;;;;;;;7.30;2.80;;;;;;;16.47;54.16;98767.87;105969;1277;138011;-77
2022/05/15 07:07:52;;;;;;;10.70;3.40;;;;;;;16.50;54.10;98762.20;105883;1280;22583;-77
2022/05/15 07:10:19;;;;;;;;;;;;;;;16.55;53.84;98760.33;106007;1278;137886;-77
2022/05/15 07:12:46;;;;;;;9.80;3.20;;;;;;;16.66;54.20;98762.51;105751;1278;22538;-77
2022/05/15 07:15:13;;;;;;;6.70;3.50;;;;;;;16.74;53.95;98764.10;105988;1277;25488;-77
2022/05/15 07:17:40;;;;;;;9.20;3.80;;;;;;;16.75;53.46;98763.33;105984;1277;138016;-78
2022/05/15 07:20:08;;;;;;;8.20;2.70;;;;;;;16.78;53.69;98766.67;107554;1277;24233;-78
2022/05/15 07:22:36;;;;;;;13.10;3.40;;;;;;;16.83;53.00;98766.63;106526;1277;137860;-77
2022/05/15 07:25:04;;;;;;;8.60;3.40;;;;;;;16.93;53.04;98760.73;106135;1278;25265;-77
2022/05/15 07:27:31;;;;;;;7.80;3.40;;;;;;;17.07;53.38;98754.46;106670;1278;24326;-78
2022/05/15 07:29:58;;;;;;;15.70;3.90;;;;;;;17.19;52.70;98756.89;106181;1277;137742;-77
2022/05/15 07:32:25;;;;;;;11.40;3.40;;;;;;;17.22;52.44;98756.23;106136;1277;23497;-78
2022/05/15 07:35:07;;;;;;;11.50;4.00;;;;;;;17.34;53.01;98762.62;106115;1277;137796;-77
2022/05/15 07:37:34;;;;;;;8.90;3.60;;;;;;;17.40;52.12;98764.30;106862;1277;22606;-78
2022/05/15 07:40:01;;;;;;;9.00;3.80;;;;;;;17.49;51.45;98764.09;106543;1277;22567;-78
2022/05/15 07:42:29;;;;;;;10.90;3.40;;;;;;;17.50;51.31;98756.87;106493;1277;137582;-77
2022/05/15 07:44:59;;;;;;;10.00;3.70;;;;;;;17.55;51.81;98760.75;106298;1277;22559;-79
2022/05/15 07:47:26;;;;;;;9.00;3.90;;;;;;;17.71;51.48;98762.38;106138;1277;137800;-79
2022/05/15 07:49:53;;;;;;;9.50;3.40;;;;;;;17.81;51.08;98758.14;106077;1278;22749;-79
2022/05/15 07:52:19;;;;;;;7.80;3.10;;;;;;;17.87;50.53;98757.34;106204;1278;137676;-76
2022/05/15 07:54:46;;;;;;;9.50;3.20;;;;;;;17.91;49.86;98764.52;106406;1277;22763;-76
2022/05/15 07:57:13;;;;;;;9.30;2.90;;;;;;;17.89;49.46;98760.92;106531;1277;26510;-79
2022/05/15 07:59:40;;;;;;;8.30;3.00;;;;;;;17.89;48.70;98766.14;106142;1277;137682;-74
2022/05/15 08:02:08;;;;;;;8.10;3.00;;;;;;;17.83;48.19;98765.60;106481;1277;22560;-78
2022/05/15 08:08:00;;;;;;;11.40;3.30;;;;;;;17.92;47.58;98766.79;106406;1278;138376;-76
2022/05/15 08:10:08;;;;;;;6.30;2.90;;;;;;;18.05;46.99;98762.63;106192;1278;26456;-76
2022/05/15 08:12:35;;;;;;;9.80;3.30;;;;;;;18.04;46.54;98763.40;106047;1277;137979;-77
2022/05/15 08:15:05;;;;;;;10.20;2.80;;;;;;;17.96;46.65;98761.30;105895;1277;22538;-76
2022/05/15 08:17:32;;;;;;;10.40;3.30;;;;;;;17.97;47.00;98763.89;106012;1277;137791;-76
2022/05/15 08:23:39;;;;;;;6.20;2.70;;;;;;;17.93;47.09;98760.62;105997;1277;137867;-76
2022/05/15 08:25:46;;;;;;;5.40;3.00;;;;;;;17.90;47.10;98769.39;105834;1279;24186;-76
2022/05/15 08:28:14;;;;;;;8.70;2.90;;;;;;;17.79;46.65;98768.65;106285;1277;137782;-76
2022/05/15 08:30:41;;;;;;;7.10;2.80;;;;;;;17.73;47.53;98765.78;106038;1278;22569;-76
2022/05/15 08:33:11;;;;;;;8.80;2.70;;;;;;;17.76;47.95;98766.60;106167;1278;24215;-76
2022/05/15 08:35:38;;;;;;;7.50;2.60;;;;;;;17.97;46.43;98764.60;106011;1277;138007;-77
2022/05/15 08:38:05;;;;;;;7.70;2.80;;;;;;;18.20;45.70;98763.45;106147;1277;24386;-77
2022/05/15 08:41:00;;;;;;;6.50;2.40;;;;;;;18.47;45.15;98764.83;106128;1277;137622;-76
2022/05/15 08:43:41;;;;;;;9.00;2.90;;;;;;;18.82;44.21;98759.15;106110;1277;22538;-77
2022/05/15 08:46:22;;;;;;;7.80;2.70;;;;;;;18.94;44.34;98768.08;106023;1277;22553;-77
2022/05/15 08:48:51;;;;;;;5.40;2.30;;;;;;;18.86;43.25;98773.20;106250;1278;137410;-77
2022/05/15 08:51:18;;;;;;;10.00;2.60;;;;;;;18.79;42.49;98775.34;106079;1278;22548;-77
2022/05/15 08:53:49;;;;;;;11.10;2.60;;;;;;;18.65;42.89;98768.02;106007;1278;138293;-76
2022/05/15 08:56:17;;;;;;;7.40;2.40;;;;;;;18.46;42.60;98768.26;105895;1277;25481;-78
2022/05/15 08:58:51;;;;;;;16.30;3.10;;;;;;;18.47;43.69;98769.29;105766;1277;137717;-76
2022/05/15 09:01:29;;;;;;;7.40;2.90;;;;;;;18.77;44.22;98767.52;106231;1277;22535;-76
2022/05/15 09:03:57;;;;;;;8.30;2.90;;;;;;;19.08;43.29;98767.71;105952;1277;25235;-76
2022/05/15 09:06:48;;;;;;;9.30;3.10;;;;;;;19.11;42.93;98769.06;105946;1278;137742;-78
2022/05/15 09:09:29;;;;;;;10.80;2.90;;;;;;;19.21;43.17;98768.33;106677;1278;25273;-77
2022/05/15 09:12:14;;;;;;;9.30;2.90;;;;;;;19.40;42.27;98769.05;106086;1277;137787;-76
2022/05/15 09:15:01;;;;;;;15.00;3.10;;;;;;;19.65;42.47;98766.45;105931;1277;24459;-76
2022/05/15 09:17:31;;;;;;;9.70;3.00;;;;;;;19.87;42.22;98759.70;105854;1277;137779;-77
2022/05/15 09:20:09;;;;;;;7.40;2.30;;;;;;;19.88;40.70;98764.61;106289;1277;22535;-76
2022/05/15 09:22:41;;;;;;;7.40;2.50;;;;;;;19.92;41.28;98765.18;105948;1277;138055;-75
2022/05/15 09:25:24;;;;;;;10.60;3.40;;;;;;;19.74;41.14;98769.50;105844;1278;25447;-77
2022/05/15 09:28:05;;;;;;;7.10;2.40;;;;;;;19.59;41.72;98767.04;105787;1278;22658;-76
2022/05/15 09:30:49;;;;;;;9.00;2.50;;;;;;;19.67;41.50;98770.80;106206;1278;137361;-76
2022/05/15 09:33:46;;;;;;;6.80;2.50;;;;;;;19.67;41.86;98772.45;106502;1277;25332;-76
2022/05/15 09:36:41;;;;;;;7.50;2.70;;;;;;;19.62;41.02;98770.48;106313;1278;137873;-76
2022/05/15 09:39:25;;;;;;;7.70;2.50;;;;;;;19.87;41.44;98765.90;106949;1277;22563;-77
2022/05/15 09:45:07;;;;;;;9.50;3.20;;;;;;;20.30;39.85;98771.81;106129;1278;25374;-75
2022/05/15 09:47:40;;;;;;;7.50;2.90;;;;;;;20.24;39.42;98775.96;106174;1278;138660;-76
2022/05/15 09:50:40;;;;;;;7.60;2.70;;;;;;;20.13;39.93;98781.72;106429;1277;25254;-76
2022/05/15 09:53:12;;;;;;;8.00;2.60;;;;;;;20.23;39.20;98778.14;105633;1280;137600;-77
2022/05/15 09:55:40;;;;;;;8.60;2.80;;;;;;;20.35;38.72;98781.82;106313;1277;23818;-77
2022/05/15 09:58:18;;;;;;;9.10;2.30;;;;;;;20.41;38.11;98776.23;106293;1277;22706;-77
2022/05/15 10:00:45;;;;;;;7.80;2.60;;;;;;;20.49;38.35;98772.71;106154;1277;137982;-76
2022/05/15 10:03:24;;;;;;;5.20;2.40;;;;;;;20.64;38.94;98774.35;106842;1277;22555;-76
2022/05/15 10:06:03;;;;;;;5.70;1.80;;;;;;;20.78;38.62;98774.13;106319;1280;138013;-76
2022/05/15 10:08:32;;;;;;;5.80;2.20;;;;;;;20.76;37.86;98766.81;106111;1277;25570;-76
2022/05/15 10:11:03;;;;;;;7.20;2.30;;;;;;;20.59;37.63;98773.34;106281;1277;138394;-76
2022/05/15 10:13:40;;;;;;;7.00;2.30;;;;;;;20.35;37.31;98775.89;105853;1280;323732;-76
2022/05/15 10:16:17;;;;;;;8.10;2.30;;;;;;;20.35;37.10;98772.70;106079;1277;22717;-76
2022/05/15 10:19:00;;;;;;;6.70;2.20;;;;;;;20.41;37.04;98770.81;106238;1277;137566;-76
2022/05/15 10:21:42;;;;;;;6.50;2.80;;;;;;;20.58;37.68;98772.85;106395;1278;22542;-76
2022/05/15 10:24:22;;;;;;;5.70;2.40;;;;;;;20.81;37.87;98767.86;106324;1277;137578;-76
2022/05/15 10:27:02;;;;;;;7.00;2.30;;;;;;;21.15;38.36;98768.72;106521;1280;24948;-76
2022/05/15 10:29:40;;;;;;;6.80;2.20;;;;;;;21.39;37.05;98756.06;106401;1277;137733;-76
2022/05/15 10:32:14;;;;;;;7.70;2.50;;;;;;;21.03;36.69;98766.64;106394;1280;25577;-76
2022/05/15 10:34:41;;;;;;;10.70;2.50;;;;;;;20.78;37.20;98775.67;106042;1280;137713;-76
2022/05/15 10:37:28;;;;;;;7.90;2.80;;;;;;;20.52;37.77;98772.46;106730;1277;24050;-76
2022/05/15 10:40:09;;;;;;;6.70;2.10;;;;;;;20.57;37.14;98764.84;106195;1277;23130;-76
2022/05/15 10:43:04;;;;;;;6.90;2.00;;;;;;;20.73;36.77;98765.23;106322;1277;137988;-77
2022/05/15 10:45:57;;;;;;;6.10;2.20;;;;;;;20.96;36.52;98771.31;106698;1277;25382;-76
2022/05/15 10:48:30;;;;;;;5.80;1.90;;;;;;;21.06;36.09;98761.75;105927;1280;137642;-76
2022/05/15 10:51:24;;;;;;;6.30;2.10;;;;;;;21.16;36.29;98765.50;105953;1278;22554;-77
2022/05/15 10:57:25;;;;;;;4.20;1.70;;;;;;;20.49;35.85;98765.33;105918;1277;22568;-76
2022/05/15 10:59:58;;;;;;;6.20;1.80;;;;;;;20.43;36.57;98766.91;106092;1277;138045;-77
2022/05/15 11:02:45;;;;;;;4.80;1.70;;;;;;;20.60;35.65;98765.11;105894;1277;25273;-76
2022/05/15 11:05:12;;;;;;;7.70;2.00;;;;;;;20.90;35.37;98764.44;105871;1277;138790;-76
2022/05/15 11:08:18;;;;;;;5.10;1.90;;;;;;;21.29;35.44;98752.26;106073;1278;22635;-76
2022/05/15 11:11:12;;;;;;;7.70;2.10;;;;;;;21.76;35.53;98745.52;105693;1280;138141;-77
2022/05/15 11:13:59;;;;;;;4.80;1.70;;;;;;;22.03;34.67;98743.62;106248;1277;25274;-76
2022/05/15 11:16:49;;;;;;;4.70;1.70;;;;;;;22.08;33.59;98745.61;105952;1278;23291;-76
2022/05/15 11:19:29;;;;;;;4.90;1.70;;;;;;;21.98;33.83;98744.19;105920;1277;31831;-76
2022/05/15 11:22:05;;;;;;;4.90;1.80;;;;;;;22.06;33.47;98747.61;106594;1277;22571;-77
2022/05/15 11:25:03;;;;;;;6.80;1.60;;;;;;;22.23;33.76;98743.48;106468;1277;137642;-76
2022/05/15 11:27:44;;;;;;;4.50;1.30;;;;;;;22.29;32.14;98746.23;105934;1277;25324;-75
2022/05/15 11:30:18;;;;;;;5.30;1.20;;;;;;;21.84;32.44;98743.29;106222;1280;137609;-76
2022/05/15 11:32:44;;;;;;;6.60;1.30;;;;;;;21.36;32.80;98747.92;106085;1278;22533;-76
2022/05/15 11:35:25;;;;;;;4.50;1.20;;;;;;;21.15;33.68;98742.13;105984;1277;138194;-77
2022/05/15 11:37:51;;;;;;;3.40;1.40;;;;;;;21.18;33.18;98750.66;106497;1277;22563;-76
2022/05/15 11:40:34;;;;;;;6.70;1.40;;;;;;;21.08;32.14;98742.77;106084;1277;25382;-76
2022/05/15 11:43:29;;;;;;;5.40;1.40;;;;;;;21.20;32.50;98738.59;106266;1277;137450;-76
2022/05/15 11:45:58;;;;;;;3.70;1.20;;;;;;;21.43;32.27;98740.52;106035;1277;22573;-76
2022/05/15 11:48:56;;;;;;;2.80;1.00;;;;;;;21.65;31.60;98730.75;106447;1280;137713;-76
2022/05/15 11:51:30;;;;;;;5.10;1.20;;;;;;;21.83;32.34;98730.56;105812;1280;25313;-76
2022/05/15 11:54:04;;;;;;;4.80;1.30;;;;;;;22.08;32.37;98727.63;106037;1280;138159;-76
2022/05/15 11:56:51;;;;;;;2.70;1.20;;;;;;;22.36;31.46;98726.09;105957;1278;22559;-77